createdAt,value
2019-02-02T00:01:07.538Z,16.90
2019-02-02T00:03:12.990Z,16.83
2019-02-02T00:05:17.759Z,17.37
2019-02-02T00:07:22.579Z,16.33
2019-02-02T00:09:27.576Z,16.47
2019-02-02T00:11:32.421Z,16.57
2019-02-02T00:13:37.707Z,17.27
2019-02-02T00:15:42.648Z,16.43
2019-02-02T00:17:47.559Z,15.50
2019-02-02T00:19:56.052Z,17.53
2019-02-02T00:22:00.934Z,15.63
2019-02-02T00:24:06.283Z,14.40
2019-02-02T00:26:10.998Z,15.90
2019-02-02T00:28:15.817Z,15.80
2019-02-02T00:30:20.774Z,15.47
2019-02-02T00:32:25.485Z,15.47
2019-02-02T00:34:30.576Z,14.63
2019-02-02T00:36:35.279Z,13.17
2019-02-02T00:38:40.147Z,13.17
2019-02-02T00:40:45.236Z,13.70
2019-02-02T00:42:50.337Z,12.80
2019-02-02T00:44:55.146Z,13.13
2019-02-02T00:47:00.279Z,12.37
2019-02-02T00:49:05.255Z,12.77
2019-02-02T00:51:09.984Z,12.63
2019-02-02T00:53:14.708Z,12.40
2019-02-02T00:55:19.680Z,11.30
2019-02-02T00:57:24.948Z,11.73
2019-02-02T00:59:29.756Z,13.60
2019-02-02T01:01:34.511Z,11.93
2019-02-02T01:03:39.253Z,12.90
2019-02-02T01:05:43.985Z,12.90
2019-02-02T01:07:49.239Z,13.17
2019-02-02T01:09:54.008Z,11.90
2019-02-02T01:11:58.763Z,13.00
2019-02-02T01:14:04.381Z,12.60
2019-02-02T01:16:09.184Z,12.37
2019-02-02T01:18:13.905Z,12.60
2019-02-02T01:20:18.994Z,12.90
2019-02-02T01:22:23.754Z,13.00
2019-02-02T01:24:28.479Z,12.87
2019-02-02T01:26:33.292Z,12.70
2019-02-02T01:28:38.085Z,13.17
2019-02-02T01:30:43.251Z,11.90
2019-02-02T01:32:48.690Z,12.27
2019-02-02T01:34:53.822Z,12.43
2019-02-02T01:36:58.575Z,11.87
2019-02-02T01:39:04.296Z,11.93
2019-02-02T01:41:09.093Z,10.70
2019-02-02T01:43:13.831Z,12.10
2019-02-02T01:45:21.242Z,12.73
2019-02-02T01:47:25.977Z,12.50
2019-02-02T01:49:30.823Z,12.53
2019-02-02T01:51:35.634Z,13.00
2019-02-02T01:53:40.672Z,12.50
2019-02-02T01:55:45.431Z,12.80
2019-02-02T01:57:50.176Z,13.47
2019-02-02T01:59:55.161Z,13.30
2019-02-02T02:02:00.033Z,13.20
2019-02-02T02:04:04.771Z,13.07
2019-02-02T02:06:10.080Z,12.83
2019-02-02T02:08:15.691Z,12.80
2019-02-02T02:10:20.682Z,14.57
2019-02-02T02:12:25.836Z,13.90
2019-02-02T02:14:30.620Z,13.63
2019-02-02T02:16:35.523Z,13.50
2019-02-02T02:18:40.343Z,13.70
2019-02-02T02:20:45.103Z,14.40
2019-02-02T02:22:50.600Z,14.07
2019-02-02T02:24:55.427Z,13.40
2019-02-02T02:27:00.202Z,13.80
2019-02-02T02:29:05.744Z,13.83
2019-02-02T02:31:10.762Z,13.37
2019-02-02T02:33:15.552Z,13.70
2019-02-02T02:35:20.608Z,13.40
2019-02-02T02:37:25.371Z,13.33
2019-02-02T02:39:30.468Z,13.47
2019-02-02T02:41:36.228Z,12.97
2019-02-02T02:43:41.093Z,14.83
2019-02-02T02:45:45.943Z,13.93
2019-02-02T02:47:50.935Z,13.67
2019-02-02T02:49:55.776Z,14.37
2019-02-02T02:52:00.830Z,14.03
2019-02-02T02:54:06.128Z,14.87
2019-02-02T02:56:11.404Z,14.00
2019-02-02T02:58:16.115Z,12.73
2019-02-02T03:00:23.450Z,14.40
2019-02-02T03:02:28.971Z,15.60
2019-02-02T03:04:33.759Z,12.60
2019-02-02T03:06:38.517Z,13.90
2019-02-02T03:08:43.660Z,14.70
2019-02-02T03:10:48.426Z,14.10
2019-02-02T03:12:53.906Z,14.43
2019-02-02T03:14:58.691Z,13.50
2019-02-02T03:17:03.466Z,13.37
2019-02-02T03:19:08.489Z,13.90
2019-02-02T03:21:13.273Z,14.40
2019-02-02T03:23:18.022Z,14.07
2019-02-02T03:25:24.342Z,14.57
2019-02-02T03:27:29.087Z,13.87
2019-02-02T03:29:33.863Z,13.43
2019-02-02T03:31:38.730Z,15.27
2019-02-02T03:33:48.286Z,15.27
2019-02-02T03:35:53.203Z,15.50
2019-02-02T03:37:58.082Z,15.70
2019-02-02T03:40:02.866Z,14.63
2019-02-02T03:42:07.844Z,14.50
2019-02-02T03:44:12.659Z,15.00
2019-02-02T03:46:16.037Z,14.67
2019-02-02T03:48:20.984Z,15.27
2019-02-02T03:50:26.066Z,16.07
2019-02-02T03:52:30.921Z,16.40
2019-02-02T03:54:35.845Z,15.23
2019-02-02T03:56:40.759Z,16.30
2019-02-02T03:58:45.631Z,14.93
2019-02-02T04:00:50.523Z,16.07
2019-02-02T04:02:55.461Z,15.43
2019-02-02T04:05:00.939Z,14.67
2019-02-02T04:07:14.289Z,15.07
2019-02-02T04:09:30.082Z,15.47
2019-02-02T04:11:43.308Z,15.93
2019-02-02T04:13:56.291Z,14.90
2019-02-02T04:16:08.183Z,15.27
2019-02-02T04:18:22.975Z,15.37
2019-02-02T04:23:48.486Z,17.60
2019-02-02T04:26:11.722Z,17.23
2019-02-02T04:28:49.420Z,16.67
2019-02-02T04:31:02.771Z,16.43
2019-02-02T04:33:17.226Z,15.60
2019-02-02T04:35:24.301Z,16.30
2019-02-02T04:37:29.709Z,18.23
2019-02-02T04:39:35.253Z,17.50
2019-02-02T04:41:41.926Z,17.20
2019-02-02T04:43:59.937Z,16.33
2019-02-02T04:53:58.126Z,17.97
2019-02-02T04:56:04.722Z,18.07
2019-02-02T04:58:16.948Z,17.10
2019-02-02T05:00:26.880Z,18.27
2019-02-02T05:02:34.536Z,17.87
2019-02-02T05:04:40.654Z,19.30
2019-02-02T05:07:25.562Z,18.87
2019-02-02T05:09:27.434Z,19.43
2019-02-02T05:11:33.699Z,19.07
2019-02-02T05:13:39.224Z,18.57
2019-02-02T05:15:45.065Z,18.67
2019-02-02T05:17:53.363Z,20.23
2019-02-02T05:20:21.839Z,20.07
2019-02-02T05:22:26.873Z,18.90
2019-02-02T05:24:31.648Z,19.37
2019-02-02T05:26:36.480Z,18.77
2019-02-02T05:28:41.292Z,18.90
2019-02-02T05:30:46.381Z,19.40
2019-02-02T05:32:51.612Z,18.37
2019-02-02T05:34:56.401Z,20.13
2019-02-02T05:37:01.225Z,19.77
2019-02-02T05:39:09.158Z,19.63
2019-02-02T05:41:14.031Z,19.57
2019-02-02T05:43:18.808Z,18.30
2019-02-02T05:45:24.109Z,20.03
2019-02-02T05:47:29.326Z,19.40
2019-02-02T05:49:34.147Z,19.97
2019-02-02T05:51:39.288Z,19.67
2019-02-02T05:53:44.678Z,20.50
2019-02-02T05:55:49.835Z,20.13
2019-02-02T05:57:54.645Z,22.67
2019-02-02T05:59:59.587Z,21.67
2019-02-02T06:02:04.470Z,22.30
2019-02-02T06:04:09.717Z,20.97
2019-02-02T06:06:14.643Z,20.10
2019-02-02T06:08:19.799Z,21.90
2019-02-02T06:10:24.792Z,21.97
2019-02-02T06:12:30.165Z,23.70
2019-02-02T06:14:34.976Z,22.63
2019-02-02T06:16:40.242Z,23.00
2019-02-02T06:18:45.057Z,23.07
2019-02-02T06:20:50.515Z,26.07
2019-02-02T06:22:55.512Z,23.23
2019-02-02T06:25:00.449Z,23.03
2019-02-02T06:27:06.040Z,25.00
2019-02-02T06:29:11.838Z,23.37
2019-02-02T06:31:17.133Z,24.60
2019-02-02T06:33:22.835Z,23.50
2019-02-02T06:35:28.279Z,24.63
2019-02-02T06:37:33.733Z,25.10
2019-02-02T06:39:39.814Z,24.53
2019-02-02T06:41:45.343Z,24.03
2019-02-02T06:43:50.926Z,24.60
2019-02-02T06:45:58.697Z,24.87
2019-02-02T06:48:06.324Z,22.80
2019-02-02T06:50:16.836Z,25.60
2019-02-02T06:52:39.538Z,26.37
2019-02-02T06:54:46.618Z,25.03
2019-02-02T06:56:53.267Z,24.17
2019-02-02T06:58:58.178Z,23.87
2019-02-02T07:01:05.004Z,25.50
2019-02-02T07:03:12.271Z,24.33
2019-02-02T07:05:17.247Z,25.97
2019-02-02T07:07:22.136Z,23.63
2019-02-02T07:09:26.935Z,26.37
2019-02-02T07:11:31.734Z,24.90
2019-02-02T07:13:36.916Z,26.93
2019-02-02T07:15:41.725Z,27.33
2019-02-02T07:17:46.545Z,28.07
2019-02-02T07:19:51.613Z,27.33
2019-02-02T07:21:56.619Z,30.47
2019-02-02T07:24:01.664Z,32.00
2019-02-02T07:26:06.661Z,37.83
2019-02-02T07:28:12.104Z,36.63
2019-02-02T07:30:28.221Z,32.87
2019-02-02T07:32:25.359Z,29.53
2019-02-02T07:34:30.974Z,29.97
2019-02-02T07:36:35.768Z,29.83
2019-02-02T07:38:46.461Z,29.07
2019-02-02T07:40:51.281Z,28.83
2019-02-02T07:42:56.172Z,28.77
2019-02-02T07:45:01.196Z,30.10
2019-02-02T07:47:09.152Z,28.50
2019-02-02T07:49:12.835Z,28.87
2019-02-02T07:51:17.899Z,32.93
2019-02-02T07:53:23.199Z,29.47
2019-02-02T07:55:28.201Z,28.60
2019-02-02T07:57:33.129Z,29.00
2019-02-02T07:59:39.092Z,31.47
2019-02-02T08:01:44.612Z,29.27
2019-02-02T08:03:50.192Z,30.17
2019-02-02T08:05:55.405Z,29.93
2019-02-02T08:08:00.261Z,29.67
2019-02-02T08:10:07.160Z,29.10
2019-02-02T08:12:12.040Z,30.03
2019-02-02T08:14:16.826Z,29.80
2019-02-02T08:16:21.668Z,29.90
2019-02-02T08:18:26.716Z,29.83
2019-02-02T08:20:32.585Z,28.60
2019-02-02T08:22:37.784Z,30.93
2019-02-02T08:24:42.538Z,28.37
2019-02-02T08:26:47.246Z,27.70
2019-02-02T08:28:54.304Z,28.77
2019-02-02T08:30:59.668Z,28.17
2019-02-02T08:33:05.123Z,30.70
2019-02-02T08:35:10.147Z,29.80
2019-02-02T08:37:15.105Z,29.20
2019-02-02T08:39:28.961Z,28.30
2019-02-02T08:41:27.302Z,28.07
2019-02-02T08:43:32.239Z,29.13
2019-02-02T08:45:37.131Z,27.80
2019-02-02T08:47:41.929Z,29.10
2019-02-02T08:49:46.880Z,28.17
2019-02-02T08:51:56.632Z,28.27
2019-02-02T08:54:03.514Z,28.03
2019-02-02T08:56:08.833Z,28.60
2019-02-02T08:58:13.746Z,29.40
2019-02-02T09:00:21.607Z,31.00
2019-02-02T09:02:28.063Z,30.10
2019-02-02T09:04:32.991Z,29.80
2019-02-02T09:06:39.429Z,27.90
2019-02-02T09:08:46.335Z,29.40
2019-02-02T09:10:50.778Z,30.53
2019-02-02T09:12:55.587Z,28.00
2019-02-02T09:15:00.355Z,28.73
2019-02-02T09:17:05.348Z,27.83
2019-02-02T09:19:10.231Z,27.30
2019-02-02T09:21:14.958Z,26.73
2019-02-02T09:23:20.163Z,28.30
2019-02-02T09:25:25.627Z,27.13
2019-02-02T09:27:30.734Z,28.10
2019-02-02T09:29:35.790Z,27.50
2019-02-02T09:31:40.594Z,27.70
2019-02-02T09:33:45.391Z,28.07
2019-02-02T09:35:50.197Z,28.00
2019-02-02T09:37:55.223Z,27.77
2019-02-02T09:40:00.364Z,28.10
2019-02-02T09:42:05.264Z,27.13
2019-02-02T09:44:10.031Z,25.87
2019-02-02T09:46:14.752Z,28.10
2019-02-02T09:48:19.482Z,27.60
2019-02-02T09:50:25.022Z,27.40
2019-02-02T09:52:29.806Z,26.80
2019-02-02T09:54:34.559Z,26.10
2019-02-02T09:56:40.749Z,26.70
2019-02-02T09:58:45.527Z,29.17
2019-02-02T10:00:50.427Z,37.37
2019-02-02T10:02:55.412Z,34.83
2019-02-02T10:05:00.321Z,30.30
2019-02-02T10:07:05.580Z,29.80
2019-02-02T10:09:11.337Z,27.73
2019-02-02T10:11:16.201Z,27.37
2019-02-02T10:13:20.947Z,27.80
2019-02-02T10:15:26.124Z,27.57
2019-02-02T10:17:31.239Z,27.83
2019-02-02T10:19:36.039Z,29.43
2019-02-02T10:21:45.629Z,28.10
2019-02-02T10:23:50.700Z,27.70
2019-02-02T10:25:58.540Z,26.53
2019-02-02T10:28:04.647Z,28.47
2019-02-02T10:30:22.627Z,26.30
2019-02-02T10:32:27.598Z,29.00
2019-02-02T10:34:32.517Z,29.07
2019-02-02T10:36:37.459Z,28.10
2019-02-02T10:38:43.407Z,26.87
2019-02-02T10:40:48.631Z,27.20
2019-02-02T10:42:54.206Z,28.73
2019-02-02T10:44:59.169Z,25.83
2019-02-02T10:47:04.211Z,28.70
2019-02-02T10:49:09.228Z,26.10
2019-02-02T10:51:14.754Z,26.43
2019-02-02T10:53:31.045Z,25.43
2019-02-02T10:55:42.419Z,25.43
2019-02-02T10:57:47.717Z,25.00
2019-02-02T10:59:52.685Z,25.17
2019-02-02T11:01:57.749Z,25.30
2019-02-02T11:04:02.565Z,24.13
2019-02-02T11:06:07.732Z,26.13
2019-02-02T11:08:13.165Z,24.00
2019-02-02T11:10:23.070Z,25.20
2019-02-02T11:12:28.051Z,25.07
2019-02-02T11:14:32.929Z,24.10
2019-02-02T11:16:38.287Z,26.87
2019-02-02T11:18:43.700Z,25.63
2019-02-02T11:20:48.588Z,26.23
2019-02-02T11:22:55.490Z,26.60
2019-02-02T11:25:00.734Z,26.57
2019-02-02T11:27:07.173Z,26.20
2019-02-02T11:29:12.042Z,25.73
2019-02-02T11:31:17.042Z,26.60
2019-02-02T11:33:21.956Z,27.40
2019-02-02T11:35:26.814Z,28.20
2019-02-02T11:37:31.661Z,26.23
2019-02-02T11:39:36.429Z,27.00
2019-02-02T11:41:41.240Z,26.03
2019-02-02T11:43:46.138Z,26.27
2019-02-02T11:45:50.933Z,25.60
2019-02-02T11:47:55.912Z,27.13
2019-02-02T11:50:00.761Z,28.77
2019-02-02T11:52:05.603Z,27.47
2019-02-02T11:54:10.413Z,29.20
2019-02-02T11:56:15.706Z,26.93
2019-02-02T11:58:23.024Z,29.57
2019-02-02T12:00:36.254Z,28.83
2019-02-02T12:02:49.078Z,28.13
2019-02-02T12:04:47.537Z,28.80
2019-02-02T12:06:52.368Z,28.60
2019-02-02T12:08:57.539Z,29.70
2019-02-02T12:11:02.660Z,28.77
2019-02-02T12:13:07.807Z,29.43
2019-02-02T12:15:14.285Z,31.57
2019-02-02T12:17:19.138Z,29.53
2019-02-02T12:19:24.033Z,30.80
2019-02-02T12:21:29.001Z,29.20
2019-02-02T12:23:34.001Z,30.20
2019-02-02T12:25:39.360Z,30.40
2019-02-02T12:27:44.336Z,32.73
2019-02-02T12:29:49.375Z,32.17
2019-02-02T12:31:54.350Z,29.57
2019-02-02T12:33:59.167Z,31.17
2019-02-02T12:36:04.035Z,30.53
2019-02-02T12:38:09.202Z,30.63
2019-02-02T12:40:14.296Z,32.90
2019-02-02T12:42:19.376Z,31.70
2019-02-02T12:44:24.507Z,31.27
2019-02-02T12:46:29.869Z,31.73
2019-02-02T12:48:35.198Z,31.77
2019-02-02T12:50:40.044Z,30.87
2019-02-02T12:52:45.627Z,32.03
2019-02-02T12:54:51.021Z,30.67
2019-02-02T12:56:57.634Z,30.40
2019-02-02T12:59:02.419Z,32.90
2019-02-02T13:01:07.435Z,33.07
2019-02-02T13:03:12.240Z,30.73
2019-02-02T13:05:18.268Z,33.63
2019-02-02T13:07:23.260Z,30.60
2019-02-02T13:09:28.019Z,32.33
2019-02-02T13:11:33.076Z,33.40
2019-02-02T13:13:38.122Z,31.80
2019-02-02T13:15:43.575Z,30.93
2019-02-02T13:17:48.583Z,31.27
2019-02-02T13:20:05.541Z,32.10
2019-02-02T13:22:11.628Z,30.93
2019-02-02T13:24:16.477Z,28.43
2019-02-02T13:26:21.586Z,32.20
2019-02-02T13:28:26.757Z,30.43
2019-02-02T13:30:33.926Z,32.37
2019-02-02T13:32:49.144Z,30.73
2019-02-02T13:34:45.507Z,29.70
2019-02-02T13:36:50.231Z,30.90
2019-02-02T13:38:55.135Z,30.20
2019-02-02T13:40:59.895Z,29.57
2019-02-02T13:43:04.816Z,30.37
2019-02-02T13:45:10.258Z,30.60
2019-02-02T13:47:15.233Z,29.50
2019-02-02T13:49:20.780Z,31.53
2019-02-02T13:51:25.620Z,31.83
2019-02-02T13:53:30.494Z,31.30
2019-02-02T13:55:35.267Z,31.00
2019-02-02T13:57:40.200Z,29.80
2019-02-02T13:59:45.290Z,29.63
2019-02-02T14:01:50.237Z,29.90
2019-02-02T14:03:55.074Z,28.03
2019-02-02T14:06:00.074Z,28.17
2019-02-02T14:08:05.715Z,28.70
2019-02-02T14:10:13.323Z,28.97
2019-02-02T14:12:18.192Z,29.80
2019-02-02T14:14:23.284Z,29.40
2019-02-02T14:16:28.323Z,31.60
2019-02-02T14:18:33.184Z,29.33
2019-02-02T14:20:38.088Z,28.90
2019-02-02T14:22:44.247Z,28.63
2019-02-02T14:24:49.014Z,25.97
2019-02-02T14:26:53.921Z,27.70
2019-02-02T14:28:58.709Z,25.67
2019-02-02T14:31:03.551Z,26.07
2019-02-02T14:33:14.406Z,27.23
2019-02-02T14:35:15.902Z,24.50
2019-02-02T14:37:20.801Z,24.90
2019-02-02T14:39:25.600Z,24.20
2019-02-02T14:41:30.446Z,25.73
2019-02-02T14:43:35.623Z,27.03
2019-02-02T14:45:40.396Z,23.30
2019-02-02T14:47:45.234Z,22.50
2019-02-02T14:49:50.059Z,23.70
2019-02-02T14:51:54.942Z,24.73
2019-02-02T14:53:59.776Z,22.07
2019-02-02T14:56:04.763Z,23.73
2019-02-02T14:58:09.584Z,22.87
2019-02-02T15:00:19.808Z,22.57
2019-02-02T15:02:24.608Z,23.00
2019-02-02T15:04:29.434Z,21.50
2019-02-02T15:06:34.177Z,21.53
2019-02-02T15:08:39.217Z,21.17
2019-02-02T15:10:44.072Z,20.10
2019-02-02T15:12:48.879Z,21.23
2019-02-02T15:14:53.647Z,23.77
2019-02-02T15:16:58.454Z,22.00
2019-02-02T15:19:03.256Z,22.77
2019-02-02T15:21:08.379Z,23.37
2019-02-02T15:23:13.399Z,22.13
2019-02-02T15:25:18.221Z,23.87
2019-02-02T15:27:22.986Z,23.20
2019-02-02T15:29:27.765Z,24.37
2019-02-02T15:31:36.996Z,23.77
2019-02-02T15:33:41.957Z,24.93
2019-02-02T15:35:46.738Z,23.23
2019-02-02T15:37:51.874Z,25.40
2019-02-02T15:39:56.740Z,25.37
2019-02-02T15:42:01.492Z,25.93
2019-02-02T15:44:06.925Z,27.50
2019-02-02T15:46:11.943Z,26.00
2019-02-02T15:48:17.005Z,29.60
2019-02-02T15:50:22.461Z,29.53
2019-02-02T15:52:30.498Z,27.17
2019-02-02T15:54:35.487Z,28.20
2019-02-02T15:56:40.589Z,28.07
2019-02-02T15:58:45.700Z,27.27
2019-02-02T16:00:50.624Z,31.03
2019-02-02T16:02:59.035Z,31.47
2019-02-02T16:05:04.658Z,33.50
2019-02-02T16:07:10.394Z,34.07
2019-02-02T16:09:16.599Z,31.07
2019-02-02T16:11:23.336Z,31.80
2019-02-02T16:13:33.192Z,29.77
2019-02-02T16:15:39.603Z,31.70
2019-02-02T16:17:45.033Z,30.57
2019-02-02T16:19:51.373Z,31.50
2019-02-02T16:21:56.429Z,31.13
2019-02-02T16:24:02.315Z,31.00
2019-02-02T16:26:07.300Z,30.93
2019-02-02T16:28:12.659Z,30.47
2019-02-02T16:30:20.436Z,30.57
2019-02-02T16:32:25.525Z,30.43
2019-02-02T16:34:34.183Z,32.93
2019-02-02T16:36:39.182Z,31.17
2019-02-02T16:38:44.090Z,30.17
2019-02-02T16:40:48.930Z,30.30
2019-02-02T16:42:54.143Z,30.90
2019-02-02T16:44:59.086Z,31.23
2019-02-02T16:47:04.707Z,31.53
2019-02-02T16:49:10.521Z,29.77
2019-02-02T16:51:16.285Z,31.63
2019-02-02T16:53:21.900Z,38.77
2019-02-02T16:55:27.337Z,35.30
2019-02-02T16:57:32.173Z,36.50
2019-02-02T16:59:36.973Z,34.00
2019-02-02T17:01:41.834Z,33.00
2019-02-02T17:03:46.634Z,35.00
2019-02-02T17:05:51.533Z,33.50
2019-02-02T17:07:56.430Z,34.50
2019-02-02T17:10:01.189Z,42.37
2019-02-02T17:12:06.187Z,42.40
2019-02-02T17:14:11.100Z,36.60
2019-02-02T17:16:15.910Z,38.73
2019-02-02T17:18:20.840Z,35.77
2019-02-02T17:20:28.023Z,36.40
2019-02-02T17:22:32.856Z,38.87
2019-02-02T17:24:38.074Z,36.27
2019-02-02T17:26:42.942Z,36.40
2019-02-02T17:28:47.841Z,51.93
2019-02-02T17:30:52.718Z,40.63
2019-02-02T17:32:59.928Z,38.43
2019-02-02T17:35:05.273Z,37.27
2019-02-02T17:37:10.045Z,40.40
2019-02-02T17:39:15.141Z,43.23
2019-02-02T17:41:20.020Z,44.97
2019-02-02T17:43:25.171Z,37.47
2019-02-02T17:45:30.059Z,40.50
2019-02-02T17:47:35.226Z,37.33
2019-02-02T17:49:40.121Z,36.80
2019-02-02T17:51:44.919Z,37.17
2019-02-02T17:53:49.817Z,36.63
2019-02-02T17:55:54.867Z,32.60
2019-02-02T17:58:00.845Z,34.10
2019-02-02T18:00:07.339Z,34.47
2019-02-02T18:02:13.156Z,34.83
2019-02-02T18:04:18.256Z,33.20
2019-02-02T18:06:23.503Z,33.30
2019-02-02T18:08:33.015Z,34.10
2019-02-02T18:10:38.165Z,33.70
2019-02-02T18:12:44.221Z,34.33
2019-02-02T18:14:49.036Z,34.53
2019-02-02T18:16:56.669Z,34.03
2019-02-02T18:19:01.940Z,32.60
2019-02-02T18:21:07.312Z,32.40
2019-02-02T18:23:12.629Z,33.70
2019-02-02T18:25:17.400Z,31.90
2019-02-02T18:27:22.169Z,30.27
2019-02-02T18:29:29.337Z,33.00
2019-02-02T18:31:36.031Z,32.10
2019-02-02T18:33:41.111Z,32.63
2019-02-02T18:35:45.942Z,32.87
2019-02-02T18:37:50.678Z,32.60
2019-02-02T18:39:55.489Z,31.60
2019-02-02T18:42:00.682Z,32.60
2019-02-02T18:44:05.785Z,33.47
2019-02-02T18:46:10.737Z,33.33
2019-02-02T18:48:15.916Z,32.00
2019-02-02T18:50:20.809Z,31.27
2019-02-02T18:52:26.111Z,31.13
2019-02-02T18:54:36.127Z,32.33
2019-02-02T18:56:41.117Z,30.83
2019-02-02T18:58:45.993Z,31.27
2019-02-02T19:00:50.809Z,30.40
2019-02-02T19:02:55.625Z,30.53
2019-02-02T19:05:03.989Z,30.00
2019-02-02T19:07:07.246Z,31.00
2019-02-02T19:09:12.086Z,31.17
2019-02-02T19:11:16.946Z,32.33
2019-02-02T19:13:22.244Z,30.90
2019-02-02T19:15:27.211Z,29.90
2019-02-02T19:17:32.446Z,30.70
2019-02-02T19:19:37.211Z,30.77
2019-02-02T19:21:42.439Z,31.50
2019-02-02T19:23:47.636Z,32.93
2019-02-02T19:25:52.417Z,29.80
2019-02-02T19:27:57.209Z,33.13
2019-02-02T19:30:02.096Z,34.10
2019-02-02T19:32:07.137Z,35.73
2019-02-02T19:34:12.211Z,33.57
2019-02-02T19:36:17.049Z,34.30
2019-02-02T19:38:22.330Z,31.10
2019-02-02T19:40:27.490Z,35.37
2019-02-02T19:42:32.353Z,33.97
2019-02-02T19:44:40.001Z,34.00
2019-02-02T19:46:44.810Z,31.00
2019-02-02T19:48:49.640Z,33.20
2019-02-02T19:50:54.597Z,33.90
2019-02-02T19:52:59.826Z,32.60
2019-02-02T19:55:14.464Z,31.40
2019-02-02T19:57:11.893Z,31.10
2019-02-02T19:59:17.201Z,32.07
2019-02-02T20:01:23.516Z,31.30
2019-02-02T20:03:28.655Z,30.80
2019-02-02T20:05:33.554Z,29.37
2019-02-02T20:07:40.583Z,35.70
2019-02-02T20:09:45.731Z,32.50
2019-02-02T20:11:50.954Z,34.43
2019-02-02T20:13:56.270Z,35.43
2019-02-02T20:16:04.006Z,30.70
2019-02-02T20:18:10.236Z,33.03
2019-02-02T20:20:17.033Z,34.00
2019-02-02T20:22:22.036Z,35.63
2019-02-02T20:24:27.397Z,35.67
2019-02-02T20:26:32.434Z,36.80
2019-02-02T20:28:37.748Z,33.43
2019-02-02T20:30:43.059Z,34.87
2019-02-02T20:32:48.156Z,34.83
2019-02-02T20:34:53.586Z,34.40
2019-02-02T20:36:58.629Z,38.50
2019-02-02T20:39:04.413Z,44.30
2019-02-02T20:41:10.337Z,47.97
2019-02-02T20:43:15.325Z,40.80
2019-02-02T20:45:22.782Z,35.77
2019-02-02T20:47:27.704Z,36.83
2019-02-02T20:49:34.637Z,35.10
2019-02-02T20:51:40.050Z,34.47
2019-02-02T20:53:45.421Z,34.13
2019-02-02T20:55:50.355Z,35.30
2019-02-02T20:57:55.207Z,36.70
2019-02-02T21:00:00.357Z,37.47
2019-02-02T21:02:05.768Z,38.17
2019-02-02T21:04:10.704Z,35.67
2019-02-02T21:06:15.942Z,36.00
2019-02-02T21:08:20.853Z,35.10
2019-02-02T21:10:26.271Z,35.77
2019-02-02T21:12:31.243Z,36.50
2019-02-02T21:14:36.782Z,34.50
2019-02-02T21:16:41.748Z,35.13
2019-02-02T21:18:46.693Z,34.73
2019-02-02T21:20:51.823Z,38.57
2019-02-02T21:22:56.837Z,35.67
2019-02-02T21:25:01.966Z,35.43
2019-02-02T21:27:07.006Z,33.60
2019-02-02T21:29:11.847Z,37.57
2019-02-02T21:31:17.035Z,38.37
2019-02-02T21:33:22.176Z,38.13
2019-02-02T21:35:27.156Z,37.03
2019-02-02T21:37:32.008Z,39.47
2019-02-02T21:39:36.787Z,38.47
2019-02-02T21:41:41.552Z,39.83
2019-02-02T21:43:46.473Z,38.00
2019-02-02T21:45:58.919Z,39.13
2019-02-02T21:47:59.488Z,41.10
2019-02-02T21:50:05.206Z,43.53
2019-02-02T21:52:09.972Z,37.60
2019-02-02T21:54:14.897Z,37.20
2019-02-02T21:56:19.712Z,38.17
2019-02-02T21:58:24.723Z,38.60
2019-02-02T22:00:38.147Z,35.07
2019-02-02T22:02:42.910Z,34.37
2019-02-02T22:04:48.079Z,34.77
2019-02-02T22:06:53.625Z,34.37
2019-02-02T22:08:58.726Z,32.67
2019-02-02T22:11:04.069Z,35.73
2019-02-02T22:13:11.962Z,33.30
2019-02-02T22:15:19.388Z,35.63
2019-02-02T22:17:25.941Z,33.60
2019-02-02T22:19:30.865Z,37.40
2019-02-02T22:21:35.979Z,37.13
2019-02-02T22:23:41.071Z,34.20
2019-02-02T22:25:46.018Z,34.80
2019-02-02T22:27:50.964Z,34.50
2019-02-02T22:29:55.813Z,33.70
2019-02-02T22:32:00.737Z,32.07
2019-02-02T22:34:06.497Z,33.10
2019-02-02T22:36:11.788Z,32.90
2019-02-02T22:38:16.603Z,32.70
2019-02-02T22:40:22.939Z,34.00
2019-02-02T22:42:27.743Z,33.40
2019-02-02T22:44:32.786Z,33.67
2019-02-02T22:46:38.009Z,32.90
2019-02-02T22:48:42.818Z,35.33
2019-02-02T22:50:48.090Z,37.20
2019-02-02T22:52:53.013Z,34.93
2019-02-02T22:54:58.233Z,34.87
2019-02-02T22:57:03.195Z,34.63
2019-02-02T22:59:08.309Z,36.30
2019-02-02T23:01:22.294Z,33.43
2019-02-02T23:03:37.292Z,35.13
2019-02-02T23:06:23.902Z,32.50
2019-02-02T23:09:08.831Z,32.00
2019-02-02T23:11:50.207Z,34.20
2019-02-02T23:14:47.045Z,33.33
2019-02-02T23:16:52.146Z,35.07
2019-02-02T23:18:57.327Z,33.13
2019-02-02T23:21:02.119Z,36.77
2019-02-02T23:23:09.231Z,34.20
2019-02-02T23:25:14.574Z,33.10
2019-02-02T23:27:19.352Z,34.87
2019-02-02T23:29:24.173Z,34.07
2019-02-02T23:31:28.987Z,36.47
2019-02-02T23:33:33.805Z,35.90
2019-02-02T23:35:38.768Z,32.77
2019-02-02T23:37:43.640Z,34.77
2019-02-02T23:39:48.541Z,35.33
2019-02-02T23:41:53.446Z,32.60
2019-02-02T23:43:58.588Z,34.03
2019-02-02T23:46:03.330Z,34.57
2019-02-02T23:48:08.782Z,35.30
2019-02-02T23:50:13.681Z,37.50
2019-02-02T23:52:18.449Z,37.03
2019-02-02T23:54:23.281Z,36.03
2019-02-02T23:56:28.539Z,34.43
2019-02-02T23:58:33.391Z,37.27
